Terminal Aerodrome Forecast
Issued by NWS

Home | Current Version | Previous Version | Text Only | Print | Product List | Glossary On
Versions: 1 2 3 4 5 6 7 8 9 10 11 12 13 14 15 16 17 18 19 20 21 22 23 24 25 26 27 28
000
FTUS41 KBUF 140529
TAFIAG
TAF
KIAG 140529Z 1406/1506 04007KT 2SM -SN OVC020
     FM140800 36008KT P6SM SCT015 BKN020
     FM141200 34009KT P6SM SCT015 BKN025
     FM141600 31009KT P6SM BKN020
     FM142000 27008KT P6SM BKN025
     FM150200 25007KT P6SM SCT090=

USA.gov is the U.S. government's official web portal to all federal, state and local government web resources and services.